Time;durP1;ratioP1;P1;durP2;ratioP2;P2;SDS_P1;SDS_P2;PMS_P1;PMS_P2;Temp;Humidity;BMP_temperature;BMP_pressure;BME280_temperature;BME280_humidity;BME280_pressure;Samples;Min_cycle;Max_cycle;Signal;HPM_P1;HPM_P2
2022/08/22 00:00:19;;;;;;;6.07;3.47;;;;;;;;;;4982616;28;20233;-76
2022/08/22 00:02:53;;;;;;;8.07;3.60;;;;;;;;;;4994001;28;20220;-76
2022/08/22 00:05:45;;;;;;;4.33;3.50;;;;;;;;;;4994021;28;20729;-76
2022/08/22 00:08:18;;;;;;;6.10;3.73;;;;;;;;;;4994603;28;20628;-76
2022/08/22 00:10:52;;;;;;;4.90;3.50;;;;;;;;;;4980913;28;20234;-76
2022/08/22 00:13:26;;;;;;;4.60;3.67;;;;;;;;;;4992986;28;20204;-76
2022/08/22 00:16:01;;;;;;;5.70;3.97;;;;;;;;;;4993380;28;20205;-76
2022/08/22 00:18:32;;;;;;;5.17;3.90;;;;;;;;;;4993812;28;20201;-76
2022/08/22 00:21:05;;;;;;;5.23;3.60;;;;;;;;;;4991479;28;20626;-76
2022/08/22 00:23:36;;;;;;;6.30;3.73;;;;;;;;;;4977491;28;20205;-76
2022/08/22 00:26:07;;;;;;;5.30;3.70;;;;;;;;;;4994192;28;20659;-76
2022/08/22 00:28:38;;;;;;;6.17;3.77;;;;;;;;;;4993824;28;20260;-76
2022/08/22 00:31:14;;;;;;;4.20;3.80;;;;;;;;;;4994107;28;20642;-76
2022/08/22 00:33:45;;;;;;;5.00;3.90;;;;;;;;;;4992835;28;20209;-76
2022/08/22 00:36:17;;;;;;;6.27;3.53;;;;;;;;;;4992825;28;20725;-76
2022/08/22 00:38:48;;;;;;;5.70;3.40;;;;;;;;;;4993369;28;20271;-76
2022/08/22 00:41:24;;;;;;;7.40;4.27;;;;;;;;;;4999069;28;20255;-76
2022/08/22 00:44:17;;;;;;;6.23;3.97;;;;;;;;;;4993822;28;20201;-76
2022/08/22 00:46:58;;;;;;;4.77;3.70;;;;;;;;;;4993330;28;20220;-76
2022/08/22 00:49:37;;;;;;;5.83;3.83;;;;;;;;;;4993567;28;20225;-76
2022/08/22 00:52:24;;;;;;;6.83;4.13;;;;;;;;;;4994732;28;20574;-76
2022/08/22 00:55:03;;;;;;;6.07;3.87;;;;;;;;;;4993199;28;20205;-76
2022/08/22 00:57:42;;;;;;;5.83;3.60;;;;;;;;;;4994103;28;20197;-76
2022/08/22 01:00:16;;;;;;;4.37;3.90;;;;;;;;;;5005794;28;20225;-76
2022/08/22 01:03:16;;;;;;;5.43;3.90;;;;;;;;;;4993983;28;20209;-76
2022/08/22 01:05:55;;;;;;;5.50;4.00;;;;;;;;;;4992539;28;20202;-76
2022/08/22 01:08:47;;;;;;;5.47;3.87;;;;;;;;;;4977345;28;20276;-76
2022/08/22 01:11:25;;;;;;;5.43;3.57;;;;;;;;;;4993719;28;20221;-76
2022/08/22 01:14:03;;;;;;;4.93;4.00;;;;;;;;;;4995058;28;20221;-76
2022/08/22 01:16:41;;;;;;;4.13;3.70;;;;;;;;;;4993367;28;20208;-76
2022/08/22 01:19:21;;;;;;;7.27;4.57;;;;;;;;;;4993343;28;20224;-76
2022/08/22 01:22:12;;;;;;;4.13;3.73;;;;;;;;;;4990739;28;20205;-76
2022/08/22 01:25:19;;;;;;;7.40;4.30;;;;;;;;;;4992751;28;20263;-76
2022/08/22 01:28:06;;;;;;;9.17;4.30;;;;;;;;;;4983263;28;20272;-76
2022/08/22 01:30:50;;;;;;;9.10;4.27;;;;;;;;;;4977631;28;20308;-76
2022/08/22 01:33:34;;;;;;;6.90;3.80;;;;;;;;;;4996560;28;20193;-76
2022/08/22 01:36:17;;;;;;;6.20;4.30;;;;;;;;;;4977393;28;20631;-76
2022/08/22 01:39:12;;;;;;;7.43;4.73;;;;;;;;;;4992852;28;20225;-76
2022/08/22 01:41:59;;;;;;;8.03;4.67;;;;;;;;;;4996189;28;20520;-76
2022/08/22 01:44:47;;;;;;;8.93;5.00;;;;;;;;;;4995900;28;20200;-76
2022/08/22 01:47:17;;;;;;;6.10;4.40;;;;;;;;;;5009185;28;20208;-76
2022/08/22 01:49:48;;;;;;;6.93;4.60;;;;;;;;;;4996772;28;20221;-76
2022/08/22 01:52:19;;;;;;;5.87;4.00;;;;;;;;;;4996370;28;20228;-76
2022/08/22 01:54:52;;;;;;;5.17;4.00;;;;;;;;;;4996916;28;20563;-76
2022/08/22 01:57:21;;;;;;;6.60;4.60;;;;;;;;;;4997347;28;20533;-76
2022/08/22 01:59:53;;;;;;;5.77;4.53;;;;;;;;;;4996144;28;20237;-76
2022/08/22 02:02:28;;;;;;;6.77;4.83;;;;;;;;;;4995998;28;20567;-76
2022/08/22 02:05:01;;;;;;;7.00;4.40;;;;;;;;;;4996083;28;20189;-76
2022/08/22 02:07:32;;;;;;;5.03;4.47;;;;;;;;;;4996638;28;20201;-76
2022/08/22 02:10:05;;;;;;;5.30;4.40;;;;;;;;;;4995854;28;20678;-76
2022/08/22 02:12:38;;;;;;;6.23;4.67;;;;;;;;;;4995982;28;20583;-76
2022/08/22 02:15:16;;;;;;;7.27;4.60;;;;;;;;;;4996287;28;20283;-76
2022/08/22 02:17:53;;;;;;;5.50;4.73;;;;;;;;;;4992242;28;20263;-76
2022/08/22 02:20:25;;;;;;;6.90;4.63;;;;;;;;;;5006719;28;20227;-76
2022/08/22 02:22:56;;;;;;;8.13;4.63;;;;;;;;;;4996831;28;20627;-76
2022/08/22 02:25:26;;;;;;;5.70;4.50;;;;;;;;;;4995759;28;20263;-76
2022/08/22 02:27:58;;;;;;;6.33;4.00;;;;;;;;;;5012903;28;20208;-76
2022/08/22 02:30:31;;;;;;;5.90;4.77;;;;;;;;;;4988671;28;20229;-76
2022/08/22 02:33:03;;;;;;;7.20;4.73;;;;;;;;;;4995191;28;20210;-76
2022/08/22 02:35:34;;;;;;;7.73;5.63;;;;;;;;;;4996204;28;20725;-76
2022/08/22 02:38:12;;;;;;;5.80;5.30;;;;;;;;;;4991555;28;20542;-76
2022/08/22 02:40:42;;;;;;;6.10;5.50;;;;;;;;;;4992215;28;20232;-76
2022/08/22 02:43:14;;;;;;;6.17;5.50;;;;;;;;;;4995806;28;20197;-76
2022/08/22 02:45:47;;;;;;;6.10;5.23;;;;;;;;;;4995468;28;20318;-76
2022/08/22 02:48:18;;;;;;;7.23;5.43;;;;;;;;;;5003397;28;20243;-76
2022/08/22 02:50:52;;;;;;;5.53;5.07;;;;;;;;;;4985176;28;20205;-76
2022/08/22 02:53:22;;;;;;;7.87;5.23;;;;;;;;;;4995344;28;20275;-76
2022/08/22 02:55:54;;;;;;;5.97;5.37;;;;;;;;;;4996140;28;20260;-76
2022/08/22 02:58:27;;;;;;;7.10;5.13;;;;;;;;;;4994857;28;20201;-76
2022/08/22 03:01:14;;;;;;;5.83;4.90;;;;;;;;;;4995224;28;20204;-76
2022/08/22 03:03:46;;;;;;;7.33;4.97;;;;;;;;;;4995328;28;20256;-76
2022/08/22 03:06:32;;;;;;;5.57;4.73;;;;;;;;;;4995531;28;20689;-76
2022/08/22 03:09:02;;;;;;;6.53;5.37;;;;;;;;;;4982776;28;20225;-76
2022/08/22 03:11:32;;;;;;;8.40;5.40;;;;;;;;;;4991028;28;20202;-76
2022/08/22 03:14:04;;;;;;;6.93;4.90;;;;;;;;;;4995096;28;20221;-76
2022/08/22 03:16:36;;;;;;;5.40;4.73;;;;;;;;;;4995459;28;20267;-76
2022/08/22 03:19:07;;;;;;;6.13;4.63;;;;;;;;;;4975866;28;20694;-76
2022/08/22 03:21:48;;;;;;;5.17;4.30;;;;;;;;;;4988046;28;20295;-76
2022/08/22 03:24:20;;;;;;;5.73;4.47;;;;;;;;;;4985083;28;20205;-76
2022/08/22 03:26:50;;;;;;;6.40;5.00;;;;;;;;;;4994807;28;20204;-76
2022/08/22 03:29:20;;;;;;;9.03;5.67;;;;;;;;;;4995346;28;20225;-76
2022/08/22 03:32:04;;;;;;;7.90;6.20;;;;;;;;;;4994951;28;20217;-76
2022/08/22 03:34:35;;;;;;;9.23;6.63;;;;;;;;;;4994964;28;20195;-76
2022/08/22 03:37:07;;;;;;;6.33;5.67;;;;;;;;;;4994145;28;20662;-76
2022/08/22 03:39:52;;;;;;;7.37;6.20;;;;;;;;;;4994980;28;20280;-76
2022/08/22 03:42:25;;;;;;;6.47;5.80;;;;;;;;;;4997035;28;20189;-76
2022/08/22 03:45:10;;;;;;;7.17;6.07;;;;;;;;;;4994665;28;20209;-76
2022/08/22 03:47:48;;;;;;;7.80;6.50;;;;;;;;;;4994443;28;20251;-76
2022/08/22 03:50:32;;;;;;;8.83;5.87;;;;;;;;;;4994534;28;20641;-76
2022/08/22 03:53:26;;;;;;;9.93;6.47;;;;;;;;;;4989259;28;20224;-76
2022/08/22 03:56:09;;;;;;;6.20;5.60;;;;;;;;;;4993331;28;20197;-77
2022/08/22 03:58:48;;;;;;;7.53;5.87;;;;;;;;;;4952834;28;20208;-76
2022/08/22 04:01:35;;;;;;;7.67;6.10;;;;;;;;;;4993874;28;20209;-76
2022/08/22 04:04:22;;;;;;;7.57;6.53;;;;;;;;;;4984919;28;20228;-77
2022/08/22 04:07:04;;;;;;;6.73;5.50;;;;;;;;;;4990240;28;20205;-77
2022/08/22 04:10:06;;;;;;;7.03;5.53;;;;;;;;;;4993670;28;20237;-77
2022/08/22 04:31:14;;;;;;;12.27;6.88;;;;;;;;;;4753466;27;10000155;-76
2022/08/22 04:33:46;;;;;;;10.10;6.60;;;;;;;;;;5075896;28;20187;-77
2022/08/22 04:36:16;;;;;;;8.10;7.30;;;;;;;;;;5075136;28;20535;-77
2022/08/22 04:38:49;;;;;;;8.03;6.53;;;;;;;;;;5089143;28;20701;-77
2022/08/22 04:41:23;;;;;;;8.43;6.97;;;;;;;;;;5097952;28;20202;-77
2022/08/22 04:43:54;;;;;;;7.80;6.60;;;;;;;;;;5101412;28;20651;-77
2022/08/22 04:46:28;;;;;;;8.37;7.20;;;;;;;;;;5073248;28;20277;-77
2022/08/22 04:49:05;;;;;;;61.40;14.17;;;;;;;;;;5076430;28;20267;-77
2022/08/22 04:51:35;;;;;;;18.03;13.43;;;;;;;;;;5080224;28;20207;-77
2022/08/22 04:54:12;;;;;;;17.83;13.23;;;;;;;;;;5074614;28;20197;-77
2022/08/22 04:56:46;;;;;;;18.53;11.17;;;;;;;;;;5085034;28;20200;-77
2022/08/22 04:59:16;;;;;;;17.17;12.37;;;;;;;;;;5093861;28;20217;-77
2022/08/22 05:01:47;;;;;;;15.43;9.77;;;;;;;;;;5077916;28;20666;-76
2022/08/22 05:04:19;;;;;;;11.17;8.30;;;;;;;;;;5084944;28;20198;-76
2022/08/22 05:06:49;;;;;;;10.97;8.13;;;;;;;;;;5086190;28;20190;-76
2022/08/22 05:09:19;;;;;;;12.40;7.67;;;;;;;;;;5077209;28;20276;-77
2022/08/22 05:11:50;;;;;;;12.53;8.37;;;;;;;;;;5076884;28;20202;-77
2022/08/22 05:14:20;;;;;;;13.83;9.47;;;;;;;;;;5078918;28;20198;-77
2022/08/22 05:16:51;;;;;;;13.07;9.63;;;;;;;;;;5090387;28;20186;-77
2022/08/22 05:19:22;;;;;;;12.83;10.63;;;;;;;;;;5100679;28;20230;-77
2022/08/22 05:21:59;;;;;;;14.27;10.47;;;;;;;;;;5088458;28;20216;-77
2022/08/22 05:24:32;;;;;;;16.23;11.40;;;;;;;;;;5088508;28;20555;-77
2022/08/22 05:27:04;;;;;;;13.97;11.67;;;;;;;;;;5089253;28;20202;-77
2022/08/22 05:29:33;;;;;;;16.03;11.73;;;;;;;;;;5089737;28;20230;-77
2022/08/22 05:32:05;;;;;;;15.77;10.63;;;;;;;;;;5089131;28;20202;-77
2022/08/22 05:34:37;;;;;;;11.97;10.77;;;;;;;;;;5084997;28;20206;-77
2022/08/22 05:37:09;;;;;;;13.67;12.20;;;;;;;;;;5099591;28;20625;-77
2022/08/22 05:39:39;;;;;;;13.87;12.30;;;;;;;;;;5097651;28;20226;-77
2022/08/22 05:42:13;;;;;;;15.20;13.60;;;;;;;;;;5070417;28;20729;-77
2022/08/22 05:44:42;;;;;;;17.47;14.27;;;;;;;;;;5078044;28;20252;-77
2022/08/22 05:47:20;;;;;;;30.43;15.50;;;;;;;;;;5066482;28;20222;-77
2022/08/22 05:49:51;;;;;;;20.20;13.83;;;;;;;;;;5064651;28;20223;-77
2022/08/22 05:52:26;;;;;;;14.77;13.40;;;;;;;;;;5068756;28;20198;-77
2022/08/22 05:54:58;;;;;;;14.27;12.90;;;;;;;;;;5070142;28;20198;-77
2022/08/22 05:57:33;;;;;;;15.00;13.60;;;;;;;;;;5056097;28;20211;-77
2022/08/22 06:00:04;;;;;;;15.37;13.97;;;;;;;;;;5074597;28;20553;-77
2022/08/22 06:02:40;;;;;;;15.03;13.53;;;;;;;;;;5075932;28;20201;-77
2022/08/22 06:05:09;;;;;;;14.97;13.57;;;;;;;;;;5075816;28;20186;-77
2022/08/22 06:07:41;;;;;;;15.47;13.83;;;;;;;;;;5075977;28;20187;-77
2022/08/22 06:10:17;;;;;;;15.50;13.87;;;;;;;;;;5067194;28;20237;-77
2022/08/22 06:12:50;;;;;;;16.33;14.67;;;;;;;;;;5080030;28;20636;-77
2022/08/22 06:15:22;;;;;;;15.43;13.90;;;;;;;;;;5070208;28;20616;-77
2022/08/22 06:17:55;;;;;;;19.03;14.90;;;;;;;;;;5058535;28;20290;-77
2022/08/22 06:20:26;;;;;;;16.50;13.80;;;;;;;;;;5055514;28;20254;-76
2022/08/22 06:22:57;;;;;;;15.83;14.10;;;;;;;;;;5060944;28;20294;-77
2022/08/22 06:25:28;;;;;;;14.10;12.47;;;;;;;;;;5078332;28;20207;-77
2022/08/22 06:27:57;;;;;;;16.50;13.37;;;;;;;;;;5062642;28;20210;-77
2022/08/22 06:30:28;;;;;;;14.60;12.90;;;;;;;;;;5059915;28;20235;-77
2022/08/22 06:33:01;;;;;;;14.83;13.37;;;;;;;;;;5057607;28;20207;-77
2022/08/22 06:36:29;;;;;;;16.53;12.60;;;;;;;;;;5075783;28;20214;-77
2022/08/22 06:38:22;;;;;;;13.43;12.10;;;;;;;;;;5075620;28;20248;-76
2022/08/22 06:40:53;;;;;;;13.67;11.27;;;;;;;;;;5065758;28;20195;-76
2022/08/22 06:43:23;;;;;;;12.73;11.47;;;;;;;;;;5059871;28;20199;-75
2022/08/22 06:45:52;;;;;;;12.43;10.67;;;;;;;;;;5055125;28;20656;-75
2022/08/22 06:48:23;;;;;;;15.97;11.27;;;;;;;;;;5055483;28;20218;-76
2022/08/22 06:50:53;;;;;;;13.70;10.67;;;;;;;;;;5074912;28;20573;-76
2022/08/22 06:53:24;;;;;;;13.20;9.40;;;;;;;;;;5072983;28;20195;-76
2022/08/22 06:55:54;;;;;;;12.33;9.43;;;;;;;;;;5074413;28;20308;-76
2022/08/22 06:58:24;;;;;;;12.90;8.40;;;;;;;;;;5074652;28;20213;-75
2022/08/22 07:01:00;;;;;;;10.40;8.60;;;;;;;;;;5073404;28;20230;-76
2022/08/22 07:03:42;;;;;;;9.87;8.00;;;;;;;;;;5074222;28;20194;-76
2022/08/22 07:06:14;;;;;;;8.75;7.45;;;;;;;;;;5074087;28;20202;-76
2022/08/22 07:08:43;;;;;;;10.23;7.35;;;;;;;;;;5074041;28;20218;-76
2022/08/22 07:11:14;;;;;;;11.57;7.35;;;;;;;;;;5079096;28;20217;-76
2022/08/22 07:13:44;;;;;;;11.13;8.15;;;;;;;;;;5074637;28;20271;-76
2022/08/22 07:16:13;;;;;;;9.00;6.63;;;;;;;;;;5074326;28;20592;-76
2022/08/22 07:18:48;;;;;;;10.27;6.82;;;;;;;;;;5074226;28;20226;-76
2022/08/22 07:21:24;;;;;;;8.73;6.70;;;;;;;;;;5062035;28;20206;-76
2022/08/22 07:23:54;;;;;;;10.50;6.57;;;;;;;;;;5069222;28;20198;-76
2022/08/22 07:26:27;;;;;;;8.82;6.93;;;;;;;;;;5057204;28;20257;-76
2022/08/22 07:28:58;;;;;;;8.48;6.43;;;;;;;;;;5068040;28;20231;-76
2022/08/22 07:31:35;;;;;;;8.30;6.05;;;;;;;;;;5075857;28;20223;-76
2022/08/22 07:34:24;;;;;;;8.27;6.60;;;;;;;;;;5066088;28;20241;-76
2022/08/22 07:36:57;;;;;;;8.07;6.20;;;;;;;;;;5060460;28;20206;-76
2022/08/22 07:39:28;;;;;;;8.23;5.72;;;;;;;;;;5073579;28;20215;-76
2022/08/22 07:42:10;;;;;;;7.43;5.53;;;;;;;;;;5070789;28;20198;-76
2022/08/22 07:44:45;;;;;;;8.30;5.20;;;;;;;;;;5073413;28;20213;-76
2022/08/22 07:47:16;;;;;;;8.05;5.18;;;;;;;;;;5074149;28;20620;-76
2022/08/22 07:49:57;;;;;;;6.80;5.00;;;;;;;;;;5072894;28;20217;-76
2022/08/22 07:52:26;;;;;;;7.38;4.82;;;;;;;;;;5072856;28;20210;-76
2022/08/22 07:54:56;;;;;;;7.57;5.28;;;;;;;;;;5062035;28;20207;-76
2022/08/22 07:57:29;;;;;;;8.80;4.68;;;;;;;;;;5053418;28;20191;-76
2022/08/22 07:59:59;;;;;;;9.40;4.60;;;;;;;;;;5053346;28;20234;-76
2022/08/22 08:02:28;;;;;;;7.38;4.30;;;;;;;;;;5053181;28;20207;-76
2022/08/22 08:05:00;;;;;;;4.72;4.00;;;;;;;;;;5052536;28;20215;-75
2022/08/22 08:07:31;;;;;;;8.02;4.20;;;;;;;;;;5072623;28;20248;-77
2022/08/22 08:10:02;;;;;;;7.53;4.15;;;;;;;;;;5073532;28;20588;-76
2022/08/22 08:12:33;;;;;;;7.07;4.00;;;;;;;;;;5060267;28;20227;-76
2022/08/22 08:15:03;;;;;;;8.18;4.28;;;;;;;;;;5067323;28;20577;-76
2022/08/22 08:17:34;;;;;;;7.13;4.57;;;;;;;;;;5072728;28;20252;-77
2022/08/22 08:20:07;;;;;;;8.45;4.22;;;;;;;;;;5072620;28;20229;-76
2022/08/22 08:22:37;;;;;;;6.63;3.33;;;;;;;;;;5073742;28;20183;-76
2022/08/22 08:25:06;;;;;;;6.20;3.40;;;;;;;;;;5072884;28;20206;-76
2022/08/22 08:30:24;;;;;;;6.32;3.20;;;;;;;;;;5056529;28;20233;-77
2022/08/22 08:32:55;;;;;;;5.53;3.13;;;;;;;;;;5073633;28;20229;-76
2022/08/22 08:35:47;;;;;;;6.82;3.00;;;;;;;;;;5068374;28;20198;-76
2022/08/22 08:38:31;;;;;;;5.47;3.00;;;;;;;;;;5071597;28;20618;-76
2022/08/22 08:41:09;;;;;;;5.70;3.20;;;;;;;;;;5053505;28;20202;-77
2022/08/22 08:43:45;;;;;;;5.50;2.90;;;;;;;;;;5064773;28;20312;-77
2022/08/22 08:46:38;;;;;;;4.53;2.90;;;;;;;;;;5073788;28;20183;-76
2022/08/22 08:49:33;;;;;;;4.50;2.80;;;;;;;;;;5048094;28;20223;-76
2022/08/22 08:52:18;;;;;;;5.85;2.85;;;;;;;;;;5052894;28;20207;-77
2022/08/22 08:54:54;;;;;;;7.35;3.20;;;;;;;;;;5056617;28;20252;-76
2022/08/22 08:57:34;;;;;;;5.60;3.00;;;;;;;;;;5062555;28;20202;-76
2022/08/22 09:00:07;;;;;;;4.63;2.70;;;;;;;;;;5062497;28;20290;-76
2022/08/22 09:02:57;;;;;;;7.40;3.13;;;;;;;;;;5053043;28;20206;-77
2022/08/22 09:05:55;;;;;;;5.18;3.10;;;;;;;;;;5062561;28;20207;-77
2022/08/22 09:08:34;;;;;;;3.85;2.42;;;;;;;;;;5073159;28;20187;-76
2022/08/22 09:11:06;;;;;;;4.38;2.72;;;;;;;;;;5069470;28;20203;-76
2022/08/22 09:13:46;;;;;;;5.40;2.90;;;;;;;;;;5068638;28;20194;-77
2022/08/22 09:16:35;;;;;;;5.68;3.03;;;;;;;;;;5074044;28;20198;-76
2022/08/22 09:19:13;;;;;;;5.90;2.70;;;;;;;;;;5076384;28;20249;-76
2022/08/22 09:21:50;;;;;;;7.03;3.28;;;;;;;;;;5076829;28;20187;-76
2022/08/22 09:24:39;;;;;;;5.35;2.88;;;;;;;;;;5060616;28;20221;-77
2022/08/22 09:27:12;;;;;;;6.80;2.45;;;;;;;;;;5059023;28;20280;-77
2022/08/22 09:29:42;;;;;;;5.40;3.15;;;;;;;;;;5067313;28;20773;-77
2022/08/22 09:32:41;;;;;;;4.85;2.60;;;;;;;;;;5067749;28;20588;-77
2022/08/22 09:35:12;;;;;;;5.88;2.90;;;;;;;;;;5069604;28;20207;-76
2022/08/22 09:37:46;;;;;;;4.57;2.60;;;;;;;;;;5056807;28;20194;-76
2022/08/22 09:40:27;;;;;;;4.38;2.42;;;;;;;;;;5066825;28;20222;-76
2022/08/22 09:43:01;;;;;;;4.05;2.60;;;;;;;;;;5076317;28;20244;-76
2022/08/22 09:45:48;;;;;;;4.13;2.58;;;;;;;;;;5075849;28;20202;-76
2022/08/22 09:48:29;;;;;;;3.33;2.30;;;;;;;;;;5076546;28;20537;-77
2022/08/22 09:51:03;;;;;;;4.90;2.30;;;;;;;;;;5058632;28;20198;-76
2022/08/22 09:53:59;;;;;;;5.25;2.30;;;;;;;;;;5064061;28;20687;-76
2022/08/22 09:56:35;;;;;;;4.18;2.20;;;;;;;;;;5075672;28;20187;-76
2022/08/22 09:59:06;;;;;;;6.10;2.40;;;;;;;;;;5069348;28;20227;-76
2022/08/22 10:01:39;;;;;;;4.95;2.45;;;;;;;;;;5070486;28;20248;-76
2022/08/22 10:04:29;;;;;;;5.03;2.45;;;;;;;;;;5074694;28;20226;-76
2022/08/22 10:07:02;;;;;;;3.80;2.20;;;;;;;;;;5075766;28;20221;-76
2022/08/22 10:09:44;;;;;;;5.43;2.28;;;;;;;;;;5076552;28;20222;-77
2022/08/22 10:12:17;;;;;;;5.03;2.10;;;;;;;;;;5074964;28;20212;-76
2022/08/22 10:14:59;;;;;;;3.47;2.00;;;;;;;;;;5075069;28;20206;-76
2022/08/22 10:17:31;;;;;;;4.10;2.10;;;;;;;;;;5075513;28;20202;-76
2022/08/22 10:20:04;;;;;;;4.10;2.45;;;;;;;;;;5069917;28;20270;-76
2022/08/22 10:22:39;;;;;;;5.22;2.40;;;;;;;;;;5070573;28;20198;-76
2022/08/22 10:25:12;;;;;;;4.68;2.28;;;;;;;;;;5074976;28;20202;-76
2022/08/22 10:27:53;;;;;;;5.25;2.47;;;;;;;;;;5074563;28;20198;-76
2022/08/22 10:30:26;;;;;;;7.55;2.15;;;;;;;;;;5074896;28;20234;-76
2022/08/22 10:33:01;;;;;;;4.30;2.08;;;;;;;;;;5057163;28;20222;-76
2022/08/22 10:35:31;;;;;;;4.93;2.30;;;;;;;;;;5064281;28;20206;-76
2022/08/22 10:38:04;;;;;;;4.07;2.20;;;;;;;;;;5071500;28;20667;-76
2022/08/22 10:40:37;;;;;;;4.85;2.20;;;;;;;;;;5055879;28;20231;-76
2022/08/22 10:43:10;;;;;;;3.80;2.25;;;;;;;;;;5073221;28;20198;-76
2022/08/22 10:45:40;;;;;;;5.13;2.10;;;;;;;;;;5074882;28;20191;-77
2022/08/22 10:48:30;;;;;;;4.95;2.60;;;;;;;;;;5075301;28;20206;-76
2022/08/22 10:51:14;;;;;;;4.13;2.20;;;;;;;;;;5055129;28;20187;-76
2022/08/22 10:53:57;;;;;;;3.90;2.20;;;;;;;;;;5070342;28;20216;-76
2022/08/22 10:56:29;;;;;;;3.10;1.92;;;;;;;;;;5074683;28;20207;-76
2022/08/22 10:59:03;;;;;;;3.88;2.13;;;;;;;;;;5074861;28;20702;-76
2022/08/22 11:01:36;;;;;;;7.50;2.28;;;;;;;;;;5073615;28;20203;-77
2022/08/22 11:04:12;;;;;;;5.88;2.40;;;;;;;;;;5074624;28;20273;-76
2022/08/22 11:06:46;;;;;;;5.32;2.17;;;;;;;;;;5055979;28;20203;-77
2022/08/22 11:09:25;;;;;;;3.58;2.10;;;;;;;;;;5054727;28;20222;-76
2022/08/22 11:12:01;;;;;;;4.03;2.22;;;;;;;;;;5088012;28;20194;-77
2022/08/22 11:14:44;;;;;;;4.38;1.80;;;;;;;;;;5084143;28;20566;-76
2022/08/22 11:17:24;;;;;;;4.13;2.20;;;;;;;;;;5054580;28;20571;-77
2022/08/22 11:20:05;;;;;;;6.00;2.15;;;;;;;;;;5068131;28;20258;-76
2022/08/22 11:22:41;;;;;;;4.80;2.10;;;;;;;;;;5074326;28;20256;-76
2022/08/22 11:25:29;;;;;;;6.30;2.58;;;;;;;;;;5062464;28;20659;-76
2022/08/22 11:28:21;;;;;;;3.85;1.83;;;;;;;;;;5078707;28;20202;-76
2022/08/22 11:30:55;;;;;;;2.92;1.58;;;;;;;;;;5066957;28;20264;-76
2022/08/22 11:33:26;;;;;;;5.03;1.88;;;;;;;;;;5055194;28;20640;-76
2022/08/22 11:36:27;;;;;;;2.85;1.70;;;;;;;;;;5053962;28;20209;-76
2022/08/22 11:39:03;;;;;;;3.10;2.00;;;;;;;;;;5059740;28;20225;-77
2022/08/22 11:41:43;;;;;;;4.50;1.70;;;;;;;;;;5053554;28;20195;-76
2022/08/22 11:44:21;;;;;;;3.08;1.50;;;;;;;;;;5061615;28;20229;-76
2022/08/22 11:46:56;;;;;;;2.58;1.50;;;;;;;;;;5066281;28;20198;-76
2022/08/22 11:49:28;;;;;;;3.70;1.77;;;;;;;;;;5072243;28;20222;-76
2022/08/22 11:52:09;;;;;;;4.50;1.92;;;;;;;;;;5073138;28;20194;-77
2022/08/22 11:54:42;;;;;;;3.45;2.13;;;;;;;;;;5070698;28;20214;-76
2022/08/22 11:57:12;;;;;;;4.40;1.67;;;;;;;;;;5053939;28;20183;-76
2022/08/22 11:59:56;;;;;;;3.58;1.58;;;;;;;;;;5071289;28;20222;-76
2022/08/22 12:02:29;;;;;;;3.58;1.58;;;;;;;;;;5070276;28;20202;-76
2022/08/22 12:05:02;;;;;;;3.42;1.70;;;;;;;;;;5059556;28;20203;-76
2022/08/22 12:07:32;;;;;;;4.85;1.60;;;;;;;;;;5064878;28;20206;-76
2022/08/22 12:10:03;;;;;;;4.18;1.80;;;;;;;;;;5073645;28;20581;-76
2022/08/22 12:12:37;;;;;;;3.90;1.80;;;;;;;;;;5072961;28;20195;-76
2022/08/22 12:15:12;;;;;;;3.70;1.83;;;;;;;;;;5066721;28;20260;-76
2022/08/22 12:17:53;;;;;;;4.30;1.70;;;;;;;;;;5059608;28;20583;-76
2022/08/22 12:20:52;;;;;;;3.13;1.67;;;;;;;;;;5057602;28;20229;-76
2022/08/22 12:23:27;;;;;;;1.88;1.60;;;;;;;;;;5054910;28;20225;-76
2022/08/22 12:26:20;;;;;;;3.33;1.70;;;;;;;;;;5063111;28;20203;-76
2022/08/22 12:28:55;;;;;;;2.90;1.58;;;;;;;;;;5072723;28;20264;-76
2022/08/22 12:31:29;;;;;;;2.60;1.52;;;;;;;;;;5073530;28;20194;-77
2022/08/22 12:34:03;;;;;;;2.58;1.52;;;;;;;;;;5073527;28;20663;-76
2022/08/22 12:36:53;;;;;;;1.95;1.20;;;;;;;;;;5061336;28;20669;-76
2022/08/22 12:39:30;;;;;;;3.17;1.90;;;;;;;;;;5073520;28;20319;-77
2022/08/22 12:42:07;;;;;;;3.45;1.70;;;;;;;;;;5069629;28;20200;-76
2022/08/22 12:44:41;;;;;;;2.50;1.80;;;;;;;;;;5072462;28;20666;-76
2022/08/22 12:47:16;;;;;;;4.18;1.77;;;;;;;;;;5072751;28;20186;-76
2022/08/22 12:50:00;;;;;;;3.30;1.80;;;;;;;;;;5073135;28;20628;-76
2022/08/22 12:52:37;;;;;;;3.75;1.90;;;;;;;;;;5056304;28;20304;-76
2022/08/22 12:55:18;;;;;;;4.10;1.77;;;;;;;;;;5061964;28;20228;-76
2022/08/22 12:57:49;;;;;;;3.05;1.60;;;;;;;;;;5069449;28;20202;-76
2022/08/22 13:00:26;;;;;;;2.95;1.80;;;;;;;;;;5076304;28;20217;-76
2022/08/22 13:02:58;;;;;;;2.30;1.65;;;;;;;;;;5076938;28;20198;-76
2022/08/22 13:05:29;;;;;;;3.53;1.50;;;;;;;;;;5076756;28;20203;-76
2022/08/22 13:08:06;;;;;;;3.20;1.95;;;;;;;;;;5076137;28;20198;-76
2022/08/22 13:10:40;;;;;;;1.88;1.58;;;;;;;;;;5067036;28;20683;-76
2022/08/22 13:13:10;;;;;;;2.42;1.50;;;;;;;;;;5063868;28;20202;-76
2022/08/22 13:15:43;;;;;;;3.30;1.70;;;;;;;;;;5071177;28;20226;-76
2022/08/22 13:18:14;;;;;;;2.88;1.73;;;;;;;;;;5080820;28;20199;-76
2022/08/22 13:21:01;;;;;;;2.90;1.77;;;;;;;;;;5068760;28;20629;-76
2022/08/22 13:23:33;;;;;;;1.85;1.60;;;;;;;;;;5074487;28;20183;-76
2022/08/22 13:26:11;;;;;;;3.20;1.98;;;;;;;;;;5070843;28;20217;-76
2022/08/22 13:28:50;;;;;;;5.00;1.80;;;;;;;;;;5073561;28;20248;-76
2022/08/22 13:31:39;;;;;;;2.58;1.52;;;;;;;;;;5063593;28;20202;-76
2022/08/22 13:34:11;;;;;;;2.97;1.70;;;;;;;;;;5074757;28;20218;-76
2022/08/22 13:36:43;;;;;;;3.13;1.80;;;;;;;;;;5073761;28;20198;-75
2022/08/22 13:39:25;;;;;;;3.08;1.65;;;;;;;;;;5071779;28;20223;-76
2022/08/22 13:41:55;;;;;;;4.38;1.80;;;;;;;;;;5073488;28;20217;-76
2022/08/22 13:44:26;;;;;;;2.50;1.80;;;;;;;;;;5074218;28;20287;-76
2022/08/22 13:47:02;;;;;;;4.60;1.77;;;;;;;;;;5054243;28;20203;-76
2022/08/22 13:49:43;;;;;;;2.38;1.70;;;;;;;;;;5057182;28;20231;-76
2022/08/22 13:52:18;;;;;;;2.10;1.63;;;;;;;;;;5068263;28;20202;-76
2022/08/22 13:55:00;;;;;;;3.58;1.80;;;;;;;;;;5085604;28;20229;-76
2022/08/22 13:57:32;;;;;;;3.60;1.80;;;;;;;;;;5078548;28;20194;-76
2022/08/22 14:00:06;;;;;;;5.32;2.00;;;;;;;;;;5067465;28;20231;-76
2022/08/22 14:02:45;;;;;;;3.42;1.65;;;;;;;;;;5071631;28;20208;-76
2022/08/22 14:05:17;;;;;;;3.05;1.70;;;;;;;;;;5074599;28;20199;-76
2022/08/22 14:07:52;;;;;;;2.53;1.52;;;;;;;;;;5054082;28;20550;-76
2022/08/22 14:10:24;;;;;;;4.68;1.70;;;;;;;;;;5071291;28;20226;-76
2022/08/22 14:13:16;;;;;;;2.28;1.60;;;;;;;;;;5063927;28;20198;-76
2022/08/22 14:15:44;;;;;;;4.50;1.60;;;;;;;;;;5061932;28;20231;-77
2022/08/22 14:18:14;;;;;;;2.63;1.73;;;;;;;;;;5091719;28;20205;-76
2022/08/22 14:20:46;;;;;;;2.67;1.70;;;;;;;;;;5063824;28;20227;-76
2022/08/22 14:23:18;;;;;;;2.25;1.63;;;;;;;;;;5091548;28;20205;-76
2022/08/22 14:25:51;;;;;;;3.78;1.70;;;;;;;;;;5075497;28;20240;-77
2022/08/22 14:28:23;;;;;;;4.28;1.63;;;;;;;;;;5074623;28;20643;-76
2022/08/22 14:30:57;;;;;;;4.30;1.45;;;;;;;;;;5069883;28;20591;-76
2022/08/22 14:33:34;;;;;;;3.65;1.50;;;;;;;;;;5068725;28;20222;-77
2022/08/22 14:36:05;;;;;;;3.10;1.75;;;;;;;;;;5065463;28;20283;-76
2022/08/22 14:38:40;;;;;;;3.03;1.50;;;;;;;;;;5081379;28;20669;-77
2022/08/22 14:41:22;;;;;;;2.25;1.58;;;;;;;;;;5055236;28;20648;-76
2022/08/22 14:43:52;;;;;;;3.80;1.90;;;;;;;;;;5071328;28;20289;-76
2022/08/22 14:46:24;;;;;;;3.78;1.90;;;;;;;;;;5071825;28;20632;-76
2022/08/22 14:49:12;;;;;;;2.53;1.88;;;;;;;;;;5076413;28;20737;-76
2022/08/22 14:51:41;;;;;;;3.97;1.80;;;;;;;;;;5062768;28;20244;-78
2022/08/22 14:54:13;;;;;;;2.03;1.67;;;;;;;;;;5062908;28;20572;-75
2022/08/22 14:56:49;;;;;;;4.93;2.00;;;;;;;;;;5060096;28;20697;-76
2022/08/22 14:59:31;;;;;;;3.97;1.77;;;;;;;;;;5066509;28;20223;-76
2022/08/22 15:02:01;;;;;;;3.63;2.08;;;;;;;;;;5055019;28;20559;-76
2022/08/22 15:04:34;;;;;;;2.53;1.73;;;;;;;;;;5055423;28;20659;-76
2022/08/22 15:07:02;;;;;;;4.00;1.80;;;;;;;;;;5073844;28;20198;-76
2022/08/22 15:09:34;;;;;;;2.22;1.70;;;;;;;;;;5068927;28;20271;-77
2022/08/22 15:12:04;;;;;;;2.08;1.80;;;;;;;;;;5072773;28;20199;-76
2022/08/22 15:14:43;;;;;;;4.07;1.75;;;;;;;;;;5073586;28;20207;-76
2022/08/22 15:17:33;;;;;;;4.90;2.00;;;;;;;;;;5067444;28;20289;-76
2022/08/22 15:20:10;;;;;;;3.15;1.95;;;;;;;;;;5083352;28;20217;-76
2022/08/22 15:22:40;;;;;;;2.08;1.40;;;;;;;;;;5091418;28;20198;-76
2022/08/22 15:25:16;;;;;;;3.85;1.90;;;;;;;;;;5058708;28;20237;-76
2022/08/22 15:27:46;;;;;;;3.17;1.77;;;;;;;;;;5071889;28;20211;-76
2022/08/22 15:30:17;;;;;;;3.25;1.80;;;;;;;;;;5060550;28;20258;-77
2022/08/22 15:32:48;;;;;;;3.85;1.88;;;;;;;;;;5054660;28;20210;-76
2022/08/22 15:35:27;;;;;;;3.60;1.90;;;;;;;;;;5065442;28;20233;-76
2022/08/22 15:37:58;;;;;;;2.53;1.95;;;;;;;;;;5071819;28;20563;-76
2022/08/22 15:40:32;;;;;;;3.65;2.08;;;;;;;;;;5059956;28;20630;-76
2022/08/22 15:43:11;;;;;;;2.55;2.00;;;;;;;;;;5053583;28;20206;-76
2022/08/22 15:45:42;;;;;;;3.60;1.88;;;;;;;;;;5073758;28;20281;-76
2022/08/22 15:48:13;;;;;;;3.22;1.95;;;;;;;;;;5064006;28;20202;-76
2022/08/22 15:50:55;;;;;;;2.45;1.80;;;;;;;;;;5057343;28;20566;-76